createdAt,value
2018-12-15T00:00:55.044Z,2.10
2018-12-15T00:03:22.614Z,1.70
2018-12-15T00:05:50.200Z,2.10
2018-12-15T00:08:17.986Z,2.20
2018-12-15T00:10:45.602Z,1.70
2018-12-15T00:13:13.185Z,2.03
2018-12-15T00:15:40.752Z,1.90
2018-12-15T00:18:08.574Z,1.87
2018-12-15T00:20:36.227Z,1.60
2018-12-15T00:23:03.887Z,2.20
2018-12-15T00:25:31.501Z,1.93
2018-12-15T00:27:59.108Z,1.90
2018-12-15T00:30:26.746Z,1.57
2018-12-15T00:32:54.386Z,1.73
2018-12-15T00:35:21.996Z,1.80
2018-12-15T00:37:49.603Z,1.70
2018-12-15T00:40:17.609Z,1.90
2018-12-15T00:42:45.596Z,1.77
2018-12-15T00:45:13.195Z,1.93
2018-12-15T00:47:40.796Z,1.67
2018-12-15T00:50:08.767Z,1.83
2018-12-15T00:52:36.367Z,1.90
2018-12-15T00:55:04.485Z,1.80
2018-12-15T00:57:32.110Z,2.47
2018-12-15T00:59:59.710Z,1.70
2018-12-15T01:02:27.316Z,1.83
2018-12-15T01:04:54.975Z,2.03
2018-12-15T01:07:22.626Z,1.87
2018-12-15T01:09:50.211Z,2.23
2018-12-15T01:12:17.878Z,1.80
2018-12-15T01:14:45.461Z,1.73
2018-12-15T01:17:13.058Z,1.60
2018-12-15T01:19:40.644Z,1.67
2018-12-15T01:22:08.245Z,2.13
2018-12-15T01:24:35.861Z,1.63
2018-12-15T01:27:03.460Z,1.97
2018-12-15T01:29:31.030Z,1.83
2018-12-15T01:31:58.611Z,1.80
2018-12-15T01:34:26.220Z,1.67
2018-12-15T01:36:53.795Z,1.83
2018-12-15T01:39:21.372Z,2.03
2018-12-15T01:41:49.133Z,1.60
2018-12-15T01:44:16.817Z,1.60
2018-12-15T01:46:44.414Z,1.90
2018-12-15T01:49:11.999Z,1.63
2018-12-15T01:51:39.587Z,1.50
2018-12-15T01:54:07.166Z,1.50
2018-12-15T01:56:34.816Z,1.87
2018-12-15T01:59:02.418Z,1.90
2018-12-15T02:01:30.003Z,1.87
2018-12-15T02:03:57.591Z,2.10
2018-12-15T02:06:25.199Z,1.97
2018-12-15T02:08:52.810Z,1.60
2018-12-15T02:11:20.369Z,1.63
2018-12-15T02:13:48.320Z,1.57
2018-12-15T02:16:15.940Z,1.50
2018-12-15T02:18:43.514Z,1.83
2018-12-15T02:21:11.098Z,1.83
2018-12-15T02:23:38.680Z,1.50
2018-12-15T02:26:06.277Z,1.80
2018-12-15T02:28:33.905Z,1.50
2018-12-15T02:31:01.480Z,1.60
2018-12-15T02:33:29.088Z,1.80
2018-12-15T02:35:56.686Z,2.00
2018-12-15T02:38:24.316Z,1.80
2018-12-15T02:40:51.895Z,1.90
2018-12-15T02:43:19.487Z,2.10
2018-12-15T02:45:47.661Z,1.90
2018-12-15T02:48:15.230Z,1.57
2018-12-15T02:50:42.804Z,1.93
2018-12-15T02:53:11.567Z,1.70
2018-12-15T02:55:39.177Z,1.90
2018-12-15T02:58:07.153Z,1.63
2018-12-15T03:03:08.608Z,1.77
2018-12-15T03:05:36.223Z,1.73
2018-12-15T03:08:03.802Z,2.00
2018-12-15T03:10:31.435Z,1.90
2018-12-15T03:12:59.159Z,1.67
2018-12-15T03:15:26.740Z,1.70
2018-12-15T03:17:54.347Z,2.00
2018-12-15T03:20:21.954Z,1.73
2018-12-15T03:22:49.770Z,2.17
2018-12-15T03:25:17.468Z,1.70
2018-12-15T03:27:45.147Z,1.87
2018-12-15T03:30:12.934Z,1.50
2018-12-15T03:32:40.654Z,1.63
2018-12-15T03:35:08.358Z,1.70
2018-12-15T03:37:35.934Z,1.90
2018-12-15T03:40:04.990Z,1.80
2018-12-15T03:42:32.606Z,2.00
2018-12-15T03:45:00.187Z,1.70
2018-12-15T03:47:27.989Z,2.07
2018-12-15T03:49:55.615Z,1.80
2018-12-15T03:52:23.226Z,2.23
2018-12-15T03:54:50.821Z,1.90
2018-12-15T03:57:18.397Z,2.00
2018-12-15T03:59:46.105Z,2.03
2018-12-15T04:02:13.804Z,2.10
2018-12-15T04:04:41.703Z,1.50
2018-12-15T04:07:09.282Z,1.97
2018-12-15T04:09:36.910Z,2.20
2018-12-15T04:12:04.546Z,2.00
2018-12-15T04:14:32.259Z,1.90
2018-12-15T04:16:59.862Z,1.97
2018-12-15T04:19:27.466Z,2.13
2018-12-15T04:21:59.061Z,2.20
2018-12-15T04:24:26.669Z,1.90
2018-12-15T04:26:54.283Z,2.27
2018-12-15T04:29:21.912Z,2.37
2018-12-15T04:31:49.667Z,2.23
2018-12-15T04:34:17.419Z,2.00
2018-12-15T04:36:45.030Z,2.40
2018-12-15T04:39:12.743Z,2.60
2018-12-15T04:41:40.355Z,2.20
2018-12-15T04:44:08.096Z,2.13
2018-12-15T04:46:35.695Z,2.10
2018-12-15T04:49:03.381Z,1.87
2018-12-15T04:51:30.984Z,2.87
2018-12-15T04:53:58.625Z,1.77
2018-12-15T04:56:26.219Z,2.00
2018-12-15T04:58:53.826Z,2.30
2018-12-15T05:01:21.452Z,2.33
2018-12-15T05:03:49.195Z,1.97
2018-12-15T05:06:17.031Z,1.70
2018-12-15T05:08:44.615Z,1.90
2018-12-15T05:11:12.293Z,2.03
2018-12-15T05:13:39.915Z,2.00
2018-12-15T05:16:07.510Z,2.23
2018-12-15T05:18:35.277Z,1.77
2018-12-15T05:21:02.837Z,1.77
2018-12-15T05:23:30.435Z,1.77
2018-12-15T05:25:58.058Z,1.60
2018-12-15T05:28:25.653Z,1.77
2018-12-15T05:30:53.230Z,2.33
2018-12-15T05:33:20.814Z,2.03
2018-12-15T05:35:48.496Z,2.43
2018-12-15T05:38:16.163Z,1.90
2018-12-15T05:40:43.762Z,2.30
2018-12-15T05:43:11.602Z,2.27
2018-12-15T05:45:39.223Z,2.27
2018-12-15T05:48:06.888Z,2.17
2018-12-15T05:50:34.600Z,2.30
2018-12-15T05:53:02.517Z,2.33
2018-12-15T05:55:30.127Z,2.43
2018-12-15T05:57:57.694Z,2.50
2018-12-15T06:00:25.305Z,2.10
2018-12-15T06:02:52.932Z,2.10
2018-12-15T06:05:20.724Z,2.20
2018-12-15T06:07:48.465Z,2.33
2018-12-15T06:10:16.054Z,2.67
2018-12-15T06:12:43.650Z,2.53
2018-12-15T06:15:11.835Z,2.60
2018-12-15T06:17:39.415Z,2.53
2018-12-15T06:20:07.253Z,2.43
2018-12-15T06:22:34.847Z,2.10
2018-12-15T06:25:02.427Z,2.70
2018-12-15T06:27:30.060Z,1.97
2018-12-15T06:29:57.641Z,2.57
2018-12-15T06:32:25.219Z,2.50
2018-12-15T06:34:52.874Z,2.00
2018-12-15T06:37:20.504Z,2.50
2018-12-15T06:39:49.292Z,2.27
2018-12-15T06:42:17.194Z,2.57
2018-12-15T06:44:45.030Z,2.40
2018-12-15T06:47:14.069Z,2.20
2018-12-15T06:49:41.650Z,3.07
2018-12-15T06:52:09.356Z,2.80
2018-12-15T06:54:36.990Z,2.57
2018-12-15T06:57:04.582Z,2.23
2018-12-15T06:59:32.213Z,2.73
2018-12-15T07:01:59.796Z,2.97
2018-12-15T07:04:27.388Z,2.50
2018-12-15T07:06:54.969Z,2.63
2018-12-15T07:09:22.549Z,2.87
2018-12-15T07:11:50.138Z,2.40
2018-12-15T07:14:18.501Z,2.50
2018-12-15T07:16:46.139Z,2.53
2018-12-15T07:19:13.759Z,2.53
2018-12-15T07:21:41.353Z,3.10
2018-12-15T07:24:08.926Z,2.60
2018-12-15T07:26:36.515Z,2.60
2018-12-15T07:29:04.253Z,2.57
2018-12-15T07:31:31.861Z,2.60
2018-12-15T07:33:59.445Z,3.13
2018-12-15T07:36:27.017Z,2.97
2018-12-15T07:38:54.598Z,2.90
2018-12-15T07:41:22.204Z,2.77
2018-12-15T07:43:49.802Z,3.00
2018-12-15T07:46:17.526Z,2.60
2018-12-15T07:48:51.189Z,2.90
2018-12-15T07:51:14.803Z,2.80
2018-12-15T07:53:42.579Z,2.97
2018-12-15T07:56:10.198Z,2.60
2018-12-15T07:58:37.778Z,3.30
2018-12-15T08:01:05.498Z,3.17
2018-12-15T08:03:33.415Z,3.27
2018-12-15T08:06:01.064Z,3.60
2018-12-15T08:08:28.681Z,3.20
2018-12-15T08:11:01.976Z,2.77
2018-12-15T08:13:30.211Z,2.90
2018-12-15T08:15:57.812Z,3.67
2018-12-15T08:18:25.382Z,3.33
2018-12-15T08:20:52.982Z,3.13
2018-12-15T08:23:20.556Z,3.50
2018-12-15T08:25:48.464Z,4.10
2018-12-15T08:28:16.100Z,3.40
2018-12-15T08:30:43.703Z,3.67
2018-12-15T08:33:11.308Z,3.73
2018-12-15T08:35:38.901Z,4.17
2018-12-15T08:38:06.491Z,3.77
2018-12-15T08:40:34.115Z,3.40
2018-12-15T08:43:01.733Z,3.63
2018-12-15T08:45:29.347Z,3.97
2018-12-15T08:47:56.929Z,3.37
2018-12-15T08:50:24.555Z,3.50
2018-12-15T08:52:52.132Z,3.80
2018-12-15T08:55:20.154Z,3.63
2018-12-15T08:57:47.896Z,3.23
2018-12-15T09:00:15.626Z,3.53
2018-12-15T09:02:43.199Z,3.57
2018-12-15T09:05:10.761Z,4.70
2018-12-15T09:07:38.358Z,4.47
2018-12-15T09:10:06.061Z,4.80
2018-12-15T09:12:33.658Z,4.73
2018-12-15T09:15:01.227Z,4.07
2018-12-15T09:17:28.838Z,4.53
2018-12-15T09:19:56.444Z,4.03
2018-12-15T09:22:24.035Z,5.30
2018-12-15T09:24:51.618Z,4.97
2018-12-15T09:27:19.457Z,5.20
2018-12-15T09:29:47.043Z,4.97
2018-12-15T09:32:15.551Z,4.70
2018-12-15T09:34:43.181Z,5.13
2018-12-15T09:37:10.745Z,5.27
2018-12-15T09:39:38.327Z,5.63
2018-12-15T09:42:05.949Z,5.40
2018-12-15T09:44:33.511Z,4.83
2018-12-15T09:47:01.099Z,5.17
2018-12-15T09:49:28.667Z,4.27
2018-12-15T09:51:56.268Z,5.70
2018-12-15T09:54:23.851Z,5.40
2018-12-15T09:56:51.607Z,4.77
2018-12-15T09:59:19.918Z,5.03
2018-12-15T10:01:47.628Z,5.33
2018-12-15T10:04:16.690Z,5.43
2018-12-15T10:06:44.277Z,5.33
2018-12-15T10:09:11.933Z,5.20
2018-12-15T10:11:39.529Z,5.37
2018-12-15T10:14:07.131Z,4.83
2018-12-15T10:16:34.725Z,5.43
2018-12-15T10:19:02.651Z,5.47
2018-12-15T10:21:30.396Z,4.90
2018-12-15T10:23:58.038Z,4.97
2018-12-15T10:26:25.639Z,4.93
2018-12-15T10:28:53.229Z,5.80
2018-12-15T10:31:26.661Z,4.97
2018-12-15T10:33:54.246Z,5.00
2018-12-15T10:36:21.854Z,5.17
2018-12-15T10:38:49.602Z,4.50
2018-12-15T10:41:17.263Z,4.67
2018-12-15T10:43:45.088Z,5.10
2018-12-15T10:46:12.705Z,5.40
2018-12-15T10:48:40.339Z,5.70
2018-12-15T10:51:07.969Z,4.87
2018-12-15T10:53:35.605Z,5.13
2018-12-15T10:56:03.217Z,4.73
2018-12-15T10:58:30.915Z,5.03
2018-12-15T11:01:00.564Z,5.90
2018-12-15T11:03:28.181Z,5.30
2018-12-15T11:05:55.890Z,4.63
2018-12-15T11:08:23.523Z,4.63
2018-12-15T11:10:51.165Z,5.07
2018-12-15T11:13:18.861Z,5.03
2018-12-15T11:15:46.437Z,5.00
2018-12-15T11:18:14.170Z,4.00
2018-12-15T11:20:42.039Z,4.27
2018-12-15T11:23:09.639Z,4.57
2018-12-15T11:25:37.280Z,3.80
2018-12-15T11:28:04.916Z,3.80
2018-12-15T11:30:32.523Z,5.07
2018-12-15T11:33:00.136Z,5.13
2018-12-15T11:35:27.711Z,4.97
2018-12-15T11:37:55.306Z,5.37
2018-12-15T11:40:23.021Z,5.57
2018-12-15T11:42:50.658Z,4.27
2018-12-15T11:45:18.810Z,5.13
2018-12-15T11:47:46.419Z,4.10
2018-12-15T11:50:14.016Z,4.60
2018-12-15T11:52:41.639Z,5.83
2018-12-15T11:55:09.279Z,4.63
2018-12-15T11:57:36.864Z,4.80
2018-12-15T12:00:06.327Z,4.60
2018-12-15T12:02:33.975Z,4.53
2018-12-15T12:05:01.585Z,4.70
2018-12-15T12:07:29.346Z,4.97
2018-12-15T12:09:56.955Z,4.40
2018-12-15T12:12:24.580Z,4.70
2018-12-15T12:14:52.205Z,4.87
2018-12-15T12:17:19.940Z,4.53
2018-12-15T12:19:50.340Z,4.60
2018-12-15T12:22:17.526Z,5.30
2018-12-15T12:24:45.231Z,5.07
2018-12-15T12:27:13.714Z,4.70
2018-12-15T12:29:41.303Z,5.80
2018-12-15T12:32:08.882Z,5.57
2018-12-15T12:34:36.526Z,4.73
2018-12-15T12:37:04.226Z,4.87
2018-12-15T12:39:31.888Z,4.97
2018-12-15T12:41:59.496Z,5.73
2018-12-15T12:44:27.078Z,5.40
2018-12-15T12:46:54.833Z,5.53
2018-12-15T12:49:22.515Z,4.90
2018-12-15T12:51:50.134Z,5.53
2018-12-15T12:54:17.946Z,5.00
2018-12-15T12:56:45.549Z,5.97
2018-12-15T12:59:13.434Z,4.87
2018-12-15T13:01:41.355Z,5.33
2018-12-15T13:04:08.942Z,4.60
2018-12-15T13:06:36.594Z,5.13
2018-12-15T13:09:06.142Z,5.00
2018-12-15T13:11:33.770Z,5.47
2018-12-15T13:14:01.350Z,4.90
2018-12-15T13:16:28.976Z,6.17
2018-12-15T13:18:56.560Z,4.97
2018-12-15T13:21:24.167Z,5.30
2018-12-15T13:23:51.768Z,6.30
2018-12-15T13:26:19.599Z,5.60
2018-12-15T13:28:47.519Z,4.43
2018-12-15T13:31:15.565Z,5.13
2018-12-15T13:33:43.150Z,5.10
2018-12-15T13:36:12.771Z,5.50
2018-12-15T13:38:40.484Z,5.93
2018-12-15T13:41:08.453Z,5.27
2018-12-15T13:43:36.082Z,5.70
2018-12-15T13:46:03.945Z,5.33
2018-12-15T13:48:31.650Z,4.90
2018-12-15T13:50:59.266Z,5.53
2018-12-15T13:53:28.077Z,5.87
2018-12-15T13:55:55.861Z,4.63
2018-12-15T13:58:23.558Z,4.87
2018-12-15T14:00:51.156Z,6.50
2018-12-15T14:03:19.861Z,5.47
2018-12-15T14:05:48.581Z,5.73
2018-12-15T14:08:16.257Z,5.23
2018-12-15T14:10:43.907Z,6.40
2018-12-15T14:13:11.605Z,5.77
2018-12-15T14:15:39.164Z,5.70
2018-12-15T14:18:06.819Z,5.83
2018-12-15T14:20:34.551Z,5.83
2018-12-15T14:23:02.160Z,5.07
2018-12-15T14:25:29.757Z,4.90
2018-12-15T14:27:57.334Z,5.33
2018-12-15T14:30:24.947Z,5.63
2018-12-15T14:32:52.620Z,6.03
2018-12-15T14:35:20.245Z,6.30
2018-12-15T14:37:48.106Z,5.33
2018-12-15T14:40:16.053Z,5.87
2018-12-15T14:42:46.235Z,5.40
2018-12-15T14:45:13.826Z,5.27
2018-12-15T14:47:41.398Z,4.63
2018-12-15T14:50:09.117Z,5.90
2018-12-15T14:52:36.758Z,5.57
2018-12-15T14:55:04.607Z,4.73
2018-12-15T14:57:32.200Z,4.60
2018-12-15T14:59:59.813Z,5.20
2018-12-15T15:02:27.411Z,5.13
2018-12-15T15:04:55.125Z,5.40
2018-12-15T15:07:22.710Z,5.60
2018-12-15T15:09:50.392Z,5.57
2018-12-15T15:12:18.329Z,4.90
2018-12-15T15:14:45.970Z,4.87
2018-12-15T15:17:13.689Z,5.80
2018-12-15T15:19:41.547Z,4.80
2018-12-15T15:22:09.200Z,4.57
2018-12-15T15:24:36.799Z,5.60
2018-12-15T15:27:04.689Z,4.73
2018-12-15T15:29:32.280Z,5.63
2018-12-15T15:31:59.884Z,6.20
2018-12-15T15:34:27.561Z,5.10
2018-12-15T15:36:55.204Z,4.60
2018-12-15T15:39:22.844Z,5.50
2018-12-15T15:41:50.595Z,5.13
2018-12-15T15:44:18.601Z,6.00
2018-12-15T15:46:46.235Z,4.73
2018-12-15T15:49:14.061Z,5.43
2018-12-15T15:51:41.653Z,4.90
2018-12-15T15:54:09.391Z,5.70
2018-12-15T15:56:37.244Z,5.03
2018-12-15T15:59:05.439Z,4.93
2018-12-15T16:01:33.022Z,5.73
2018-12-15T16:04:00.889Z,4.83
2018-12-15T16:06:28.469Z,4.53
2018-12-15T16:08:56.073Z,5.10
2018-12-15T16:11:23.798Z,4.87
2018-12-15T16:13:51.418Z,5.93
2018-12-15T16:16:28.173Z,6.00
2018-12-15T16:18:55.789Z,4.63
2018-12-15T16:21:23.399Z,5.47
2018-12-15T16:23:51.473Z,5.13
2018-12-15T16:26:19.667Z,4.60
2018-12-15T16:28:47.578Z,5.20
2018-12-15T16:31:15.655Z,4.77
2018-12-15T16:33:43.452Z,5.00
2018-12-15T16:36:11.112Z,4.63
2018-12-15T16:38:38.949Z,4.50
2018-12-15T16:41:06.598Z,4.67
2018-12-15T16:43:34.235Z,4.57
2018-12-15T16:46:02.206Z,5.10
2018-12-15T16:48:29.805Z,4.13
2018-12-15T16:50:57.407Z,4.10
2018-12-15T16:53:25.259Z,4.30
2018-12-15T16:55:52.860Z,4.67
2018-12-15T16:58:20.454Z,4.67
2018-12-15T17:00:49.435Z,4.03
2018-12-15T17:03:18.188Z,4.20
2018-12-15T17:05:45.881Z,4.80
2018-12-15T17:08:13.602Z,4.30
2018-12-15T17:10:41.227Z,4.10
2018-12-15T17:13:08.900Z,4.10
2018-12-15T17:15:36.605Z,4.33
2018-12-15T17:18:04.268Z,4.77
2018-12-15T17:20:31.878Z,5.20
2018-12-15T17:22:59.585Z,3.80
2018-12-15T17:25:27.199Z,5.00
2018-12-15T17:27:54.819Z,3.90
2018-12-15T17:30:22.494Z,4.97
2018-12-15T17:32:50.086Z,4.93
2018-12-15T17:35:18.439Z,3.97
2018-12-15T17:37:46.218Z,4.13
2018-12-15T17:40:14.837Z,5.37
2018-12-15T17:42:42.417Z,4.47
2018-12-15T17:45:10.202Z,4.47
2018-12-15T17:47:37.770Z,4.47
2018-12-15T17:50:05.811Z,4.47
2018-12-15T17:52:33.517Z,4.30
2018-12-15T17:55:01.367Z,4.47
2018-12-15T17:57:28.955Z,4.40
2018-12-15T17:59:56.721Z,3.93
2018-12-15T18:02:24.311Z,4.70
2018-12-15T18:04:51.938Z,4.27
2018-12-15T18:07:20.454Z,4.67
2018-12-15T18:09:48.510Z,3.80
2018-12-15T18:12:17.250Z,4.10
2018-12-15T18:14:45.403Z,4.30
2018-12-15T18:17:13.322Z,3.87
2018-12-15T18:19:41.006Z,3.90
2018-12-15T18:22:09.052Z,4.20
2018-12-15T18:24:36.681Z,3.90
2018-12-15T18:27:04.329Z,3.83
2018-12-15T18:29:32.030Z,4.30
2018-12-15T18:31:59.685Z,3.70
2018-12-15T18:34:27.352Z,3.87
2018-12-15T18:36:55.231Z,4.40
2018-12-15T18:39:22.865Z,4.53
2018-12-15T18:41:50.498Z,4.33
2018-12-15T18:44:18.732Z,3.87
2018-12-15T18:46:46.328Z,4.17
2018-12-15T18:49:13.996Z,3.33
2018-12-15T18:51:41.690Z,3.60
2018-12-15T18:54:09.311Z,3.97
2018-12-15T18:56:37.085Z,3.60
2018-12-15T18:59:04.802Z,4.73
2018-12-15T19:01:32.744Z,3.53
2018-12-15T19:04:00.364Z,4.23
2018-12-15T19:06:28.331Z,3.60
2018-12-15T19:08:55.938Z,4.23
2018-12-15T19:11:23.519Z,4.00
2018-12-15T19:13:51.394Z,3.87
2018-12-15T19:16:19.399Z,3.80
2018-12-15T19:18:47.011Z,3.97
2018-12-15T19:21:14.953Z,3.37
2018-12-15T19:23:42.539Z,3.97
2018-12-15T19:26:10.309Z,4.33
2018-12-15T19:28:38.142Z,3.53
2018-12-15T19:31:05.734Z,3.87
2018-12-15T19:33:33.447Z,3.20
2018-12-15T19:36:01.230Z,3.40
2018-12-15T19:38:28.862Z,3.87
2018-12-15T19:40:56.508Z,3.63
2018-12-15T19:43:24.452Z,3.63
2018-12-15T19:45:52.074Z,3.30
2018-12-15T19:48:20.113Z,3.43
2018-12-15T19:50:48.055Z,4.13
2018-12-15T19:53:16.162Z,3.47
2018-12-15T19:55:43.911Z,3.83
2018-12-15T19:58:11.630Z,3.57
2018-12-15T20:00:39.212Z,3.57
2018-12-15T20:03:06.800Z,3.73
2018-12-15T20:05:34.606Z,3.20
2018-12-15T20:08:02.231Z,2.63
2018-12-15T20:10:29.958Z,3.63
2018-12-15T20:12:58.049Z,3.20
2018-12-15T20:15:25.623Z,2.80
2018-12-15T20:17:53.358Z,3.60
2018-12-15T20:20:21.035Z,3.40
2018-12-15T20:22:49.436Z,3.20
2018-12-15T20:25:17.030Z,3.50
2018-12-15T20:27:44.919Z,3.23
2018-12-15T20:30:12.624Z,2.97
2018-12-15T20:32:40.372Z,2.57
2018-12-15T20:35:08.190Z,2.90
2018-12-15T20:37:36.180Z,3.20
2018-12-15T20:40:06.150Z,3.53
2018-12-15T20:42:33.833Z,3.10
2018-12-15T20:45:01.648Z,2.80
2018-12-15T20:47:29.315Z,3.30
2018-12-15T20:49:57.033Z,3.37
2018-12-15T20:52:24.637Z,3.27
2018-12-15T20:54:52.250Z,3.90
2018-12-15T20:57:20.252Z,3.23
2018-12-15T20:59:48.203Z,4.07
2018-12-15T21:02:15.839Z,3.60
2018-12-15T21:04:43.501Z,3.40
2018-12-15T21:07:11.093Z,3.83
2018-12-15T21:09:38.697Z,3.83
2018-12-15T21:12:06.605Z,3.80
2018-12-15T21:14:34.221Z,3.37
2018-12-15T21:17:01.862Z,3.90
2018-12-15T21:19:29.561Z,3.73
2018-12-15T21:21:57.234Z,3.67
2018-12-15T21:24:24.819Z,3.10
2018-12-15T21:26:52.687Z,2.93
2018-12-15T21:29:20.858Z,3.30
2018-12-15T21:31:48.517Z,3.77
2018-12-15T21:34:16.223Z,3.37
2018-12-15T21:36:43.900Z,3.83
2018-12-15T21:39:11.535Z,3.43
2018-12-15T21:41:39.210Z,3.67
2018-12-15T21:44:06.962Z,3.43
2018-12-15T21:46:34.626Z,3.63
2018-12-15T21:49:02.478Z,3.03
2018-12-15T21:51:30.099Z,3.60
2018-12-15T21:53:57.718Z,3.47
2018-12-15T21:56:25.634Z,4.27
2018-12-15T21:58:53.214Z,4.17
2018-12-15T22:01:20.986Z,4.10
2018-12-15T22:03:48.707Z,3.60
2018-12-15T22:06:16.289Z,4.17
2018-12-15T22:08:43.900Z,2.90
2018-12-15T22:11:11.598Z,3.90
2018-12-15T22:13:39.174Z,4.23
2018-12-15T22:16:06.759Z,4.20
2018-12-15T22:18:34.656Z,4.20
2018-12-15T22:21:02.260Z,4.57
2018-12-15T22:23:29.852Z,4.47
2018-12-15T22:25:57.693Z,4.53
2018-12-15T22:28:25.265Z,4.13
2018-12-15T22:30:52.843Z,3.40
2018-12-15T22:33:21.693Z,4.40
2018-12-15T22:35:49.537Z,3.33
2018-12-15T22:38:17.135Z,4.53
2018-12-15T22:40:44.816Z,4.87
2018-12-15T22:43:12.440Z,5.00
2018-12-15T22:45:40.026Z,3.57
2018-12-15T22:48:07.710Z,3.93
2018-12-15T22:50:35.317Z,4.33
2018-12-15T22:53:02.961Z,4.27
2018-12-15T22:55:30.923Z,4.30
2018-12-15T22:57:58.560Z,4.87
2018-12-15T23:00:26.237Z,4.13
2018-12-15T23:02:54.072Z,4.40
2018-12-15T23:05:21.656Z,4.40
2018-12-15T23:07:50.270Z,4.17
2018-12-15T23:10:18.185Z,5.13
2018-12-15T23:12:45.837Z,4.97
2018-12-15T23:15:13.436Z,4.23
2018-12-15T23:17:41.295Z,4.63
2018-12-15T23:20:08.868Z,4.83
2018-12-15T23:22:36.506Z,5.30
2018-12-15T23:25:04.278Z,3.70
2018-12-15T23:27:31.888Z,4.00
2018-12-15T23:29:59.490Z,4.10
2018-12-15T23:32:27.489Z,4.90
2018-12-15T23:34:55.088Z,4.53
2018-12-15T23:37:22.682Z,4.50
2018-12-15T23:39:50.507Z,4.10
2018-12-15T23:42:19.310Z,5.40
2018-12-15T23:44:46.914Z,4.47
2018-12-15T23:47:14.731Z,4.13
2018-12-15T23:49:42.306Z,5.00
2018-12-15T23:52:09.882Z,3.90
2018-12-15T23:54:38.714Z,4.63
2018-12-15T23:57:06.316Z,4.17
2018-12-15T23:59:33.892Z,4.60
